Time;durP1;ratioP1;P1;durP2;ratioP2;P2;SDS_P1;SDS_P2;PMS_P1;PMS_P2;Temp;Humidity;BMP_temperature;BMP_pressure;BME280_temperature;BME280_humidity;BME280_pressure;Samples;Min_cycle;Max_cycle;Signal;HPM_P1;HPM_P2
2022/07/11 00:01:43;;;;;;;;;2.00;2.00;;;;;25.08;39.15;101967.28;5073511;27;45596;-87
2022/07/11 00:04:09;;;;;;;;;2.33;2.33;;;;;25.04;39.52;101967.53;5055465;28;45589;-88
2022/07/11 00:06:34;;;;;;;;;2.00;2.00;;;;;25.02;39.29;101961.34;5069615;27;45414;-88
2022/07/11 00:09:00;;;;;;;;;2.00;2.00;;;;;25.03;39.01;101963.09;5074784;27;45547;-88
2022/07/11 00:11:26;;;;;;;;;2.00;2.00;;;;;24.94;39.38;101954.84;5067830;27;45590;-88
2022/07/11 00:13:51;;;;;;;;;2.00;2.00;;;;;24.99;39.31;101956.16;5074149;28;45470;-88
2022/07/11 00:16:16;;;;;;;;;3.00;3.00;;;;;25.00;39.06;101965.19;5069491;27;45627;-87
2022/07/11 00:18:42;;;;;;;;;2.00;2.00;;;;;24.95;39.58;101951.94;5069834;28;45441;-89
2022/07/11 00:21:07;;;;;;;;;2.00;2.00;;;;;24.87;39.04;101942.72;5071871;27;45915;-87
2022/07/11 00:23:32;;;;;;;;;3.00;3.00;;;;;24.98;39.37;101964.47;5073655;27;45669;-89
2022/07/11 00:25:58;;;;;;;;;2.00;2.00;;;;;24.94;39.24;101961.16;5066021;28;45394;-88
2022/07/11 00:28:23;;;;;;;;;2.00;2.00;;;;;24.89;39.52;101965.25;5056338;28;45459;-89
2022/07/11 00:30:48;;;;;;;;;2.33;2.33;;;;;24.90;39.26;101967.84;5071014;28;47599;-89
2022/07/11 00:33:14;;;;;;;;;2.00;2.00;;;;;24.87;39.65;101951.75;5074336;27;45433;-89
2022/07/11 00:35:39;;;;;;;;;2.33;1.33;;;;;24.74;39.31;101930.09;5076031;27;45959;-89
2022/07/11 00:38:05;;;;;;;;;3.00;2.00;;;;;24.70;39.66;101923.22;5075034;28;45406;-88
2022/07/11 00:40:30;;;;;;;;;2.67;2.00;;;;;24.79;39.75;101946.94;5075844;27;45898;-89
2022/07/11 00:42:55;;;;;;;;;1.67;1.67;;;;;24.79;39.83;101944.22;5063910;28;45443;-88
2022/07/11 00:45:21;;;;;;;;;2.00;2.00;;;;;24.66;39.60;101923.59;5075636;27;45454;-89
2022/07/11 00:47:46;;;;;;;;;1.00;1.00;;;;;24.68;39.32;101924.31;5076086;27;45658;-89
2022/07/11 00:50:14;;;;;;;;;1.33;1.33;;;;;24.76;39.84;101943.63;5075555;27;45469;-89
2022/07/11 00:52:40;;;;;;;;;2.33;2.33;;;;;24.74;39.64;101940.16;5075611;27;45339;-89
2022/07/11 00:55:09;;;;;;;;;2.00;2.00;;;;;24.72;39.63;101936.69;5075640;27;45441;-89
2022/07/11 00:57:36;;;;;;;;;2.00;2.00;;;;;24.69;39.43;101934.22;5075847;27;45500;-89
2022/07/11 01:00:02;;;;;;;;;2.00;2.00;;;;;24.68;40.16;101937.94;5071583;27;46480;-89
2022/07/11 01:02:28;;;;;;;;;2.00;2.00;;;;;24.64;39.75;101932.75;5054996;28;45428;-89
2022/07/11 01:04:53;;;;;;;;;1.00;1.00;;;;;24.63;39.65;101932.88;5056485;28;45941;-89
2022/07/11 01:07:18;;;;;;;;;2.00;2.00;;;;;24.51;40.09;101918.41;5057807;28;45520;-89
2022/07/11 01:09:44;;;;;;;;;2.00;2.00;;;;;24.50;40.07;101918.56;5058671;28;46046;-88
2022/07/11 01:12:09;;;;;;;;;2.00;2.00;;;;;24.56;39.71;101935.28;5058326;28;45656;-88
2022/07/11 01:14:35;;;;;;;;;1.00;1.00;;;;;24.46;40.01;101922.50;5058649;28;45408;-89
2022/07/11 01:17:00;;;;;;;;;2.67;1.33;;;;;24.54;39.75;101933.69;5059041;28;46040;-90
2022/07/11 01:19:26;;;;;;;;;1.33;1.33;;;;;24.50;39.86;101930.31;5073268;28;45527;-91
2022/07/11 01:21:56;;;;;;;;;2.67;2.67;;;;;24.51;40.43;101928.47;5077650;27;45485;-91
2022/07/11 01:24:22;;;;;;;;;1.67;1.67;;;;;24.43;40.26;101921.75;5070103;27;45517;-91
2022/07/11 01:26:48;;;;;;;;;1.00;1.00;;;;;24.47;40.56;101933.31;5059111;28;45496;-91
2022/07/11 01:29:14;;;;;;;;;1.33;1.33;;;;;24.41;40.08;101923.75;5058439;28;46631;-91
2022/07/11 01:31:43;;;;;;;;;3.33;1.00;;;;;24.46;40.30;101930.69;5058459;28;45430;-91
2022/07/11 01:34:10;;;;;;;;;2.33;2.33;;;;;24.27;40.13;101899.50;5065077;27;45557;-91
2022/07/11 01:36:35;;;;;;;;;4.00;2.00;;;;;24.35;40.46;101923.38;5075313;27;45439;-91
2022/07/11 01:39:02;;;;;;;;;1.33;1.33;;;;;24.41;40.22;101939.25;5074547;27;46297;-90
2022/07/11 01:41:27;;;;;;;;;1.00;1.00;;;;;24.33;40.77;101923.53;5058123;28;45461;-91
2022/07/11 01:43:53;;;;;;;;;2.00;2.00;;;;;24.26;40.51;101911.41;5058460;28;45879;-90
2022/07/11 01:46:19;;;;;;;;;1.67;1.67;;;;;24.36;40.26;101930.59;5078913;27;45384;-90
2022/07/11 01:48:44;;;;;;;;;2.00;1.00;;;;;24.35;40.89;101937.00;5076985;28;47387;-90
2022/07/11 01:51:10;;;;;;;;;1.00;1.00;;;;;24.32;40.27;101929.97;5078415;27;45435;-90
2022/07/11 01:53:35;;;;;;;;;3.00;3.00;;;;;24.24;40.69;101921.59;5078420;27;45369;-90
2022/07/11 01:56:01;;;;;;;;;1.33;1.33;;;;;24.21;40.47;101919.13;5058341;28;45392;-90
2022/07/11 01:58:26;;;;;;;;;2.00;2.00;;;;;24.25;40.60;101927.88;5057908;28;45990;-90
2022/07/11 02:00:52;;;;;;;;;1.00;1.00;;;;;24.22;41.16;101935.31;5056795;28;45400;-90
2022/07/11 02:03:17;;;;;;;;;1.00;1.00;;;;;24.17;40.51;101929.38;5057794;28;45400;-90
2022/07/11 02:05:43;;;;;;;;;1.00;1.00;;;;;24.13;41.06;101922.47;5058091;28;45405;-90
2022/07/11 02:08:11;;;;;;;;;2.00;2.00;;;;;24.19;40.55;101932.84;5063186;28;46953;-90
2022/07/11 02:10:44;;;;;;;;;2.00;2.00;;;;;24.17;41.27;101939.44;5077810;27;45384;-89
2022/07/11 02:13:10;;;;;;;;;2.00;2.00;;;;;24.15;41.35;101934.09;5077481;27;45590;-74
2022/07/11 02:15:36;;;;;;;;;1.33;1.33;;;;;23.90;41.24;101899.84;5077481;27;45566;-73
2022/07/11 02:18:01;;;;;;;;;3.00;1.00;;;;;23.98;41.19;101915.56;5077573;27;46521;-74
2022/07/11 02:20:27;;;;;;;;;1.00;1.00;;;;;24.04;41.50;101930.53;5077659;27;45434;-73
2022/07/11 02:22:53;;;;;;;;;3.00;1.33;;;;;24.00;41.38;101921.75;5076349;28;45554;-73
2022/07/11 02:25:19;;;;;;;;;3.00;3.00;;;;;24.02;41.34;101936.97;5061429;27;45458;-74
2022/07/11 02:27:45;;;;;;;;;1.67;1.00;;;;;23.99;41.54;101931.75;5061165;28;46335;-74
2022/07/11 02:30:10;;;;;;;;;1.00;1.00;;;;;23.99;41.28;101933.63;5077437;27;45624;-74
2022/07/11 02:32:37;;;;;;;;;1.67;1.00;;;;;23.92;41.61;101916.91;5075833;27;45472;-74
2022/07/11 02:35:03;;;;;;;;;1.00;1.00;;;;;23.77;41.81;101899.97;5077699;27;45446;-74
2022/07/11 02:37:28;;;;;;;;;1.00;1.00;;;;;23.78;41.43;101898.13;5077427;27;45509;-73
2022/07/11 02:39:54;;;;;;;;;1.33;1.33;;;;;23.83;41.24;101911.34;5077390;28;45510;-74
2022/07/11 02:42:19;;;;;;;;;2.00;2.00;;;;;23.88;41.50;101928.19;5076478;27;45452;-74
2022/07/11 02:44:45;;;;;;;;;3.00;1.67;;;;;23.85;41.63;101929.28;5076937;27;45524;-73
2022/07/11 02:47:10;;;;;;;;;1.00;1.00;;;;;23.82;42.01;101931.41;5065314;27;46303;-74
2022/07/11 02:49:36;;;;;;;;;1.00;1.00;;;;;23.77;41.92;101923.63;5056801;28;45537;-74
2022/07/11 02:52:02;;;;;;;;;2.00;2.00;;;;;23.79;41.59;101937.97;5068032;28;45739;-74
2022/07/11 02:54:28;;;;;;;;;1.33;1.33;;;;;23.77;41.45;101926.34;5076379;28;45549;-74
2022/07/11 02:56:54;;;;;;;;;2.00;2.00;;;;;23.76;42.20;101932.75;5077068;27;46200;-73
2022/07/11 02:59:19;;;;;;;;;3.00;2.00;;;;;23.74;42.05;101924.75;5083760;27;45419;-73
2022/07/11 03:01:45;;;;;;;;;2.33;1.00;;;;;23.72;41.87;101915.78;5097858;27;45451;-74
2022/07/11 03:04:12;;;;;;;;;2.67;2.67;;;;;23.70;42.06;101919.63;5091224;27;45672;-73
2022/07/11 03:06:41;;;;;;;;;1.00;1.00;;;;;23.56;41.94;101891.66;5056602;28;45446;-73
2022/07/11 03:09:08;;;;;;;;;3.00;3.00;;;;;23.66;42.08;101908.09;5056354;28;45451;-74
2022/07/11 03:11:33;;;;;;;;;2.00;2.00;;;;;23.62;42.27;101906.63;5060478;27;45316;-74
2022/07/11 03:14:00;;;;;;;;;2.00;2.00;;;;;23.49;42.52;101889.56;5065676;27;45386;-88
2022/07/11 03:16:27;;;;;;;;;2.00;2.00;;;;;23.62;42.81;101913.94;5075901;27;46249;-89
2022/07/11 03:18:52;;;;;;;;;3.33;3.33;;;;;23.58;42.65;101913.31;5061383;27;45364;-88
2022/07/11 03:21:18;;;;;;;;;3.00;3.00;;;;;23.57;42.96;101922.47;5056617;28;45477;-89
2022/07/11 03:23:43;;;;;;;;;2.00;2.00;;;;;23.55;43.05;101916.28;5056636;28;45507;-88
2022/07/11 03:26:08;;;;;;;;;3.00;3.00;;;;;23.53;43.05;101918.25;5072752;27;47823;-88
2022/07/11 03:28:33;;;;;;;;;2.00;2.00;;;;;23.54;42.87;101914.56;5074634;27;45465;-89
2022/07/11 03:30:59;;;;;;;;;3.00;3.00;;;;;23.47;42.47;101908.72;5075433;27;45661;-88
2022/07/11 03:33:24;;;;;;;;;2.00;2.00;;;;;23.50;42.68;101918.50;5076100;27;45417;-88
2022/07/11 03:35:50;;;;;;;;;3.00;3.00;;;;;23.41;42.56;101902.91;5073779;27;47755;-88
2022/07/11 03:38:19;;;;;;;;;2.00;2.00;;;;;23.48;43.01;101923.19;5106549;27;45517;-89
2022/07/11 03:40:45;;;;;;;;;2.00;2.00;;;;;23.43;42.66;101907.22;5075786;27;45441;-88
2022/07/11 03:43:10;;;;;;;;;2.33;2.33;;;;;23.42;42.58;101913.69;5074517;27;46289;-89
2022/07/11 03:45:36;;;;;;;;;3.33;2.00;;;;;23.39;42.61;101916.66;5075033;27;47384;-88
2022/07/11 03:48:02;;;;;;;;;2.00;2.00;;;;;23.31;43.10;101910.94;5076599;27;45509;-88
2022/07/11 03:50:27;;;;;;;;;2.00;2.00;;;;;23.37;42.86;101924.94;5075598;27;45669;-89
2022/07/11 03:52:53;;;;;;;;;1.67;1.67;;;;;23.36;42.78;101919.59;5076052;27;45336;-88
2022/07/11 03:55:18;;;;;;;;;1.33;1.33;;;;;23.34;43.36;101924.28;5075204;27;46167;-88
2022/07/11 03:57:44;;;;;;;;;2.00;2.00;;;;;23.31;43.12;101922.69;5076473;27;45500;-88
2022/07/11 04:00:10;;;;;;;;;2.00;2.00;;;;;23.28;43.24;101922.94;5072089;27;46190;-88
2022/07/11 04:02:35;;;;;;;;;2.00;2.00;;;;;23.26;43.11;101918.59;5076873;27;45488;-88
2022/07/11 04:05:01;;;;;;;;;1.00;1.00;;;;;23.24;43.76;101917.84;5073599;27;47132;-88
2022/07/11 04:07:29;;;;;;;;;4.00;2.00;;;;;23.21;43.58;101918.97;5074539;27;45723;-88
2022/07/11 04:09:55;;;;;;;;;2.00;2.00;;;;;23.05;43.29;101899.38;5074778;27;45622;-83
2022/07/11 04:12:20;;;;;;;;;1.00;1.00;;;;;23.08;43.96;101905.44;5073253;27;45561;-73
2022/07/11 04:14:46;;;;;;;;;1.00;1.00;;;;;23.18;43.58;101924.66;5065825;27;45566;-73
2022/07/11 04:17:11;;;;;;;;;2.00;2.00;;;;;23.13;43.95;101914.13;5075860;27;45495;-73
2022/07/11 04:19:38;;;;;;;;;2.00;2.00;;;;;23.16;43.92;101919.31;5074630;27;45419;-73
2022/07/11 04:22:04;;;;;;;;;2.00;2.00;;;;;23.16;43.87;101921.19;5076537;27;45660;-74
2022/07/11 04:24:29;;;;;;;;;3.00;1.33;;;;;23.16;43.60;101923.91;5073999;27;45666;-73
2022/07/11 04:26:54;;;;;;;;;2.33;2.33;;;;;23.14;43.91;101929.44;5073945;27;45389;-73
2022/07/11 04:29:20;;;;;;;;;1.67;1.67;;;;;23.13;44.26;101935.00;5067606;27;45474;-73
2022/07/11 04:31:45;;;;;;;;;3.00;2.00;;;;;23.13;44.06;101946.78;5072887;27;45701;-75
2022/07/11 04:34:10;;;;;;;;;1.67;1.33;;;;;23.13;43.95;101948.59;5070189;27;46631;-75
2022/07/11 04:36:36;;;;;;;;;1.33;1.33;;;;;23.08;44.26;101937.22;5072534;27;45694;-74
2022/07/11 04:39:01;;;;;;;;;2.00;2.00;;;;;23.06;44.21;101937.34;5072644;27;45821;-77
2022/07/11 04:41:27;;;;;;;;;2.67;1.67;;;;;23.05;43.82;101932.88;5076012;27;45669;-78
2022/07/11 04:43:52;;;;;;;;;3.67;2.00;;;;;23.06;44.13;101934.63;5068598;27;46157;-76
2022/07/11 04:46:17;;;;;;;;;4.00;2.67;;;;;23.13;44.04;101945.88;5077680;27;45549;-76
2022/07/11 04:48:43;;;;;;;;;3.00;3.00;;;;;23.13;44.31;101941.34;5076177;27;45563;-75
2022/07/11 04:51:08;;;;;;;;;2.00;2.00;;;;;23.13;43.83;101940.44;5076980;27;45548;-76
2022/07/11 04:53:34;;;;;;;;;16.33;14.00;;;;;23.08;44.51;101951.69;5075563;27;45538;-75
2022/07/11 04:55:59;;;;;;;;;3.00;3.00;;;;;23.04;43.88;101933.00;5077972;27;45430;-76
2022/07/11 04:58:25;;;;;;;;;3.00;3.00;;;;;23.05;44.16;101932.88;5077594;27;45617;-76
2022/07/11 05:00:51;;;;;;;;;2.00;2.00;;;;;23.00;44.20;101934.25;5071160;27;45668;-76
2022/07/11 05:03:16;;;;;;;;;2.00;2.00;;;;;23.15;44.38;101952.06;5072153;27;46085;-76
2022/07/11 05:05:41;;;;;;;;;2.00;2.00;;;;;23.17;44.46;101950.09;5072644;27;45730;-76
2022/07/11 05:08:07;;;;;;;;;2.00;2.00;;;;;23.13;44.08;101944.06;5076540;27;45886;-77
2022/07/11 05:10:33;;;;;;;;;3.00;3.00;;;;;22.99;43.68;101919.75;5091995;27;45569;-75
2022/07/11 05:12:59;;;;;;;;;2.33;2.33;;;;;23.07;44.36;101939.06;5075673;27;45453;-77
2022/07/11 05:15:24;;;;;;;;;2.00;2.00;;;;;23.17;43.67;101961.84;5070928;27;45601;-77
2022/07/11 05:17:50;;;;;;;;;4.33;2.00;;;;;23.16;44.18;101965.56;5072571;27;45442;-77
2022/07/11 05:20:15;;;;;;;;;4.00;4.00;;;;;23.21;44.32;101975.22;5073100;27;45814;-76
2022/07/11 05:22:41;;;;;;;;;2.33;2.33;;;;;23.01;43.71;101947.69;5071140;27;46527;-76
2022/07/11 05:25:06;;;;;;;;;1.50;1.50;;;;;23.19;43.76;101967.16;5064689;27;45777;-76
2022/07/11 05:27:32;;;;;;;;;2.33;2.33;;;;;23.23;44.33;101975.97;5075056;27;45536;-77
2022/07/11 05:29:57;;;;;;;;;3.00;3.00;;;;;23.24;43.68;101974.97;5076817;27;45481;-76
2022/07/11 05:32:22;;;;;;;;;2.33;2.33;;;;;23.24;43.80;101974.97;5074644;27;47123;-77
2022/07/11 05:34:48;;;;;;;;;3.67;3.67;;;;;23.24;44.25;101967.69;5072164;27;45554;-78
2022/07/11 05:37:13;;;;;;;;;2.00;2.00;;;;;23.24;44.42;101981.28;5075047;27;45447;-77
2022/07/11 05:39:38;;;;;;;;;2.00;2.00;;;;;23.18;44.34;101952.72;5075425;27;45554;-76
2022/07/11 05:42:04;;;;;;;;;3.00;3.00;;;;;23.33;44.10;101976.97;5075748;27;45983;-77
2022/07/11 05:44:30;;;;;;;;;4.00;2.33;;;;;23.36;43.85;101976.72;5076366;27;45501;-78
2022/07/11 05:47:02;;;;;;;;;2.00;2.00;;;;;23.40;44.36;101975.50;5076271;27;45687;-77
2022/07/11 05:49:30;;;;;;;;;2.00;2.00;;;;;23.30;44.03;101947.31;5069932;27;45785;-76
2022/07/11 05:51:55;;;;;;;;;2.33;2.33;;;;;23.43;44.24;101966.25;5067066;27;48825;-76
2022/07/11 05:54:21;;;;;;;;;4.00;4.00;;;;;23.40;43.94;101945.56;5066670;27;45878;-77
2022/07/11 05:56:46;;;;;;;;;4.00;3.00;;;;;23.50;43.99;101964.75;5075011;27;45590;-77
2022/07/11 05:59:12;;;;;;;;;4.00;2.00;;;;;23.56;43.97;101967.00;5071584;27;45623;-74
2022/07/11 06:01:37;;;;;;;;;3.00;3.00;;;;;23.46;43.41;101945.09;5063466;27;48418;-75
2022/07/11 06:04:03;;;;;;;;;4.00;2.67;;;;;23.58;43.37;101965.03;5071903;27;45583;-75
2022/07/11 06:06:29;;;;;;;;;2.33;2.33;;;;;23.62;44.44;101962.91;5072338;27;46073;-71
2022/07/11 06:08:54;;;;;;;;;5.00;3.67;;;;;23.59;43.63;101955.88;5070426;27;45628;-74
2022/07/11 06:11:20;;;;;;;;;2.67;2.33;;;;;23.61;44.51;101948.44;5074393;28;47505;-75
2022/07/11 06:13:45;;;;;;;;;3.00;3.00;;;;;23.75;44.94;101967.28;5077034;27;45964;-73
2022/07/11 06:16:11;;;;;;;;;2.00;2.00;;;;;23.69;43.94;101959.56;5075756;28;45534;-73
2022/07/11 06:18:38;;;;;;;;;4.00;2.67;;;;;23.67;44.04;101950.69;5076921;28;45463;-74
2022/07/11 06:21:04;;;;;;;;;3.00;3.00;;;;;23.84;44.02;101978.47;5076800;27;45485;-73
2022/07/11 06:23:31;;;;;;;;;2.33;2.33;;;;;23.86;43.72;101974.63;5076906;27;45723;-74
2022/07/11 06:25:57;;;;;;;;;35.00;33.33;;;;;23.91;43.72;101979.69;5077087;27;45491;-73
2022/07/11 06:28:22;;;;;;;;;3.00;3.00;;;;;23.77;43.98;101950.84;5077335;27;45393;-74
2022/07/11 06:30:48;;;;;;;;;3.00;3.00;;;;;23.97;44.38;101974.59;5076587;28;46132;-73
2022/07/11 06:33:20;;;;;;;;;4.00;2.33;;;;;24.01;43.66;101967.06;5076706;28;45432;-73
2022/07/11 06:35:46;;;;;;;;;5.00;5.00;;;;;24.01;43.64;101965.19;5076645;28;45663;-73
2022/07/11 06:38:13;;;;;;;;;4.00;4.00;;;;;24.11;44.96;101967.16;5076957;28;45520;-73
2022/07/11 06:40:40;;;;;;;;;2.00;2.00;;;;;24.16;43.73;101976.72;5076400;27;46845;-73
2022/07/11 06:43:06;;;;;;;;;4.33;3.67;;;;;24.20;43.48;101969.13;5072076;28;45896;-72
2022/07/11 06:45:33;;;;;;;;;4.00;3.67;;;;;24.22;43.60;101968.00;5053313;28;45558;-73
2022/07/11 06:47:58;;;;;;;;;2.00;2.00;;;;;24.25;43.40;101966.88;5077004;27;45702;-73
2022/07/11 06:50:24;;;;;;;;;2.00;2.00;;;;;24.30;43.21;101964.66;5076366;27;45438;-73
2022/07/11 06:52:49;;;;;;;;;3.00;3.00;;;;;24.34;43.42;101965.28;5076123;28;45511;-73
2022/07/11 06:55:16;;;;;;;;;2.67;2.67;;;;;24.22;43.21;101946.22;5076629;28;45432;-73
2022/07/11 06:57:41;;;;;;;;;1.00;1.00;;;;;24.39;43.10;101966.63;5076940;27;45487;-73
2022/07/11 07:00:08;;;;;;;;;3.00;2.00;;;;;24.42;42.83;101965.53;5076319;27;45537;-73
2022/07/11 07:02:34;;;;;;;;;2.67;1.67;;;;;24.43;42.74;101968.09;5076315;27;45505;-73
2022/07/11 07:05:00;;;;;;;;;2.00;2.00;;;;;24.46;43.21;101974.28;5076303;28;45530;-73
2022/07/11 07:07:26;;;;;;;;;2.33;2.33;;;;;24.47;42.86;101971.47;5076523;27;45617;-73
2022/07/11 07:09:54;;;;;;;;;3.00;3.00;;;;;24.44;42.97;101961.66;5076008;28;46379;-73
2022/07/11 07:12:23;;;;;;;;;2.00;2.00;;;;;24.56;42.32;101972.56;5075971;28;45504;-75
2022/07/11 07:14:49;;;;;;;;;1.67;1.67;;;;;24.61;42.87;101971.19;5067849;27;45516;-74
2022/07/11 07:17:15;;;;;;;;;4.00;2.00;;;;;24.54;42.73;101944.59;5076429;27;45520;-73
2022/07/11 07:19:41;;;;;;;;;4.00;2.67;;;;;24.71;42.56;101975.88;5075918;28;46103;-74
2022/07/11 07:22:08;;;;;;;;;2.67;2.67;;;;;24.76;42.23;101969.03;5062558;28;45598;-75
2022/07/11 07:24:34;;;;;;;;;3.33;2.00;;;;;24.82;42.15;101967.66;5074670;28;45479;-73
2022/07/11 07:26:59;;;;;;;;;3.33;2.00;;;;;24.88;42.57;101963.53;5076597;28;45494;-74
2022/07/11 07:29:26;;;;;;;;;3.67;2.33;;;;;24.96;41.89;101971.91;5060608;28;48542;-74
2022/07/11 07:31:52;;;;;;;;;2.00;2.00;;;;;25.01;41.39;101965.06;5073354;28;45386;-74
2022/07/11 07:34:19;;;;;;;;;1.67;1.67;;;;;25.03;41.23;101964.97;5075827;27;45405;-75
2022/07/11 07:36:44;;;;;;;;;1.00;1.00;;;;;25.09;41.28;101978.06;5076175;27;45439;-75
2022/07/11 07:39:09;;;;;;;;;2.00;2.00;;;;;25.15;41.75;101963.91;5075961;28;47207;-75
2022/07/11 07:41:35;;;;;;;;;1.33;1.33;;;;;25.20;41.54;101980.75;5075666;28;45579;-74
2022/07/11 07:44:02;;;;;;;;;1.00;1.00;;;;;25.24;41.47;101967.72;5075847;28;45759;-74
2022/07/11 07:46:28;;;;;;;;;1.00;1.00;;;;;25.25;40.74;101970.31;5076162;27;45493;-74
2022/07/11 07:48:53;;;;;;;;;1.33;1.33;;;;;25.20;40.99;101956.19;5075567;27;45539;-74
2022/07/11 07:51:19;;;;;;;;;2.00;2.00;;;;;25.33;41.16;101974.22;5075492;27;45469;-74
2022/07/11 07:53:44;;;;;;;;;2.00;2.00;;;;;25.38;41.26;101967.41;5075803;28;45505;-74
2022/07/11 07:56:10;;;;;;;;;3.00;3.00;;;;;25.44;40.82;101966.84;5075885;28;45492;-74
2022/07/11 07:58:35;;;;;;;;;2.00;2.00;;;;;25.48;40.82;101957.38;5075277;27;46045;-74
2022/07/11 08:03:44;;;;;;;;;2.33;2.33;;;;;25.61;40.23;101976.25;5072201;28;45517;-75
2022/07/11 08:06:10;;;;;;;;;2.00;2.00;;;;;25.62;40.08;101968.97;5075792;27;45913;-75
2022/07/11 08:08:35;;;;;;;;;2.33;2.33;;;;;25.62;40.19;101967.09;5075407;27;46229;-75
2022/07/11 08:11:02;;;;;;;;;1.00;1.00;;;;;25.72;40.11;101969.88;5067333;28;45564;-74
2022/07/11 08:13:27;;;;;;;;;3.00;2.00;;;;;25.72;39.67;101949.91;5070014;28;45502;-73
2022/07/11 08:15:53;;;;;;;;;3.00;1.33;;;;;25.76;39.87;101948.63;5060854;28;45647;-73
2022/07/11 08:18:18;;;;;;;;;2.00;1.00;;;;;25.89;39.63;101952.91;5079025;27;45505;-73
2022/07/11 08:20:44;;;;;;;;;1.00;1.00;;;;;26.00;39.71;101957.38;5078907;27;45477;-74
2022/07/11 08:23:09;;;;;;;;;1.33;1.33;;;;;26.03;38.95;101965.28;5079008;28;45441;-73
2022/07/11 08:25:34;;;;;;;;;2.00;2.00;;;;;26.01;38.96;101944.56;5079354;28;45638;-73
2022/07/11 08:28:00;;;;;;;;;1.00;1.00;;;;;26.10;39.47;101955.53;5078990;27;46274;-74
2022/07/11 08:30:25;;;;;;;;;2.00;1.00;;;;;26.23;38.93;101954.44;5072833;27;45589;-74
2022/07/11 08:32:51;;;;;;;;;1.33;1.33;;;;;26.27;38.67;101942.19;5067614;28;45774;-74
2022/07/11 08:35:17;;;;;;;;;3.67;2.00;;;;;26.37;38.86;101944.97;5078519;28;45429;-74
2022/07/11 08:37:43;;;;;;;;;1.25;1.00;;;;;26.27;39.00;101898.47;5077950;27;46648;-74
2022/07/11 08:40:09;;;;;;;;;1.00;1.00;;;;;26.60;38.04;101930.06;5078416;28;45888;-75
2022/07/11 08:42:42;;;;;;;;;1.00;1.00;;;;;26.93;37.49;101915.06;5078519;27;45476;-74
2022/07/11 08:45:15;;;;;;;;;1.67;1.00;;;;;27.13;36.84;101923.25;5068047;27;45533;-74
2022/07/11 08:47:42;;;;;;;;;2.50;0.75;;;;;27.39;36.57;101904.34;5074433;28;45520;-75
2022/07/11 08:50:09;;;;;;;;;1.00;1.00;;;;;28.16;36.12;101922.31;5078604;28;45663;-75
2022/07/11 08:52:36;;;;;;;;;1.00;1.00;;;;;30.06;33.40;101915.44;5070125;28;45472;-75
2022/07/11 08:55:06;;;;;;;;;2.00;2.00;;;;;30.82;31.56;101924.53;5069418;28;45596;-75
2022/07/11 08:57:32;;;;;;;;;1.00;1.00;;;;;34.25;26.57;101915.06;5078052;27;46299;-74
2022/07/11 08:59:58;;;;;;;;;1.00;1.00;;;;;37.09;23.62;101911.59;5074922;27;45459;-75
2022/07/11 09:02:24;;;;;;;;;0.75;0.75;;;;;39.13;21.63;101898.03;5078567;27;45441;-75
2022/07/11 09:04:50;;;;;;;;;0.00;0.00;;;;;40.84;19.52;101917.56;5078682;27;45569;-74
2022/07/11 09:07:15;;;;;;;;;1.00;0.00;;;;;41.91;18.23;101902.41;5078236;28;45528;-74
2022/07/11 09:09:41;;;;;;;;;1.00;0.00;;;;;43.12;17.62;101920.91;5059963;28;45357;-74
2022/07/11 09:12:14;;;;;;;;;1.50;0.75;;;;;44.35;17.07;101914.09;5077736;27;45796;-74
2022/07/11 09:14:46;;;;;;;;;0.75;0.75;;;;;45.57;15.67;101911.44;5078123;27;45493;-75
2022/07/11 09:17:11;;;;;;;;;0.25;0.25;;;;;46.66;14.32;101927.56;5078258;27;45533;-75
2022/07/11 09:19:39;;;;;;;;;1.00;1.00;;;;;47.51;13.59;101933.44;5078249;27;45645;-76
2022/07/11 09:28:00;;;;;;;;;1.33;0.67;;;;;49.68;12.44;101931.50;5078041;28;45491;-76
2022/07/11 09:30:32;;;;;;;;;2.67;1.67;;;;;50.00;11.90;101919.41;5062102;28;45502;-75
2022/07/11 09:32:58;;;;;;;;;0.00;0.00;;;;;50.29;11.88;101921.28;5078029;28;45489;-75
2022/07/11 09:35:27;;;;;;;;;0.00;0.00;;;;;50.76;11.15;101918.56;5078162;27;45450;-76
2022/07/11 09:37:52;;;;;;;;;0.00;0.00;;;;;51.10;11.00;101921.06;5077553;28;45552;-76
2022/07/11 09:40:18;;;;;;;;;2.00;1.00;;;;;51.38;11.02;101923.94;5077894;27;45529;-76
2022/07/11 09:42:48;;;;;;;;;2.00;2.00;;;;;51.92;10.53;101925.91;5077410;27;45758;-76
2022/07/11 09:45:14;;;;;;;;;1.00;0.00;;;;;52.05;10.35;101909.94;5077569;28;45473;-73
2022/07/11 09:47:47;;;;;;;;;0.00;0.00;;;;;52.43;10.84;101925.88;5077512;27;45404;-75
2022/07/11 09:50:17;;;;;;;;;0.00;0.00;;;;;52.62;10.11;101932.22;5076425;28;45402;-75
2022/07/11 09:52:44;;;;;;;;;0.00;0.00;;;;;52.33;10.57;101916.38;5077456;28;45487;-76
2022/07/11 09:55:09;;;;;;;;;0.33;0.33;;;;;52.78;9.49;101909.03;5078058;27;45470;-75
2022/07/11 09:57:37;;;;;;;;;0.00;0.00;;;;;52.62;10.18;101920.00;5077462;28;46193;-74
2022/07/11 10:00:05;;;;;;;;;0.00;0.00;;;;;52.38;9.27;101920.28;5077464;27;45507;-74
2022/07/11 10:02:31;;;;;;;;;0.67;0.67;;;;;52.42;9.66;101924.19;5077445;27;45473;-73
2022/07/11 10:04:59;;;;;;;;;1.00;1.00;;;;;52.30;10.23;101919.88;5077819;27;45522;-75
2022/07/11 10:07:24;;;;;;;;;0.00;0.00;;;;;52.27;9.97;101923.38;5077396;27;46096;-74
2022/07/11 10:09:50;;;;;;;;;0.33;0.33;;;;;52.40;9.70;101913.09;5077204;28;45409;-77
2022/07/11 10:12:16;;;;;;;;;0.00;0.00;;;;;52.38;10.18;101906.88;5063423;28;45363;-77
2022/07/11 10:14:42;;;;;;;;;1.00;0.00;;;;;52.60;10.48;101920.31;5077710;27;45460;-73
2022/07/11 10:17:49;;;;;;;;;0.00;0.00;;;;;51.47;10.34;101922.91;5077005;28;46588;-73
2022/07/11 10:20:23;;;;;;;;;0.00;0.00;;;;;51.09;10.92;101908.88;5077136;27;45351;-74
2022/07/11 10:23:14;;;;;;;;;0.33;0.33;;;;;51.12;11.05;101898.88;5066730;28;45447;-73
2022/07/11 10:25:54;;;;;;;;;0.33;0.33;;;;;50.98;10.83;101924.41;5071893;28;45590;-73
2022/07/11 10:28:44;;;;;;;;;0.00;0.00;;;;;50.25;10.98;101926.75;5061439;28;46253;-73
2022/07/11 10:31:20;;;;;;;;;0.00;0.00;;;;;49.91;12.16;101911.91;5076876;27;45520;-73
2022/07/11 10:34:18;;;;;;;;;0.00;0.00;;;;;49.76;11.19;101919.50;5077122;27;45409;-73
2022/07/11 10:36:44;;;;;;;;;0.00;0.00;;;;;49.19;12.39;101892.94;5076648;27;45524;-74
2022/07/11 10:39:24;;;;;;;;;1.00;1.00;;;;;48.96;12.55;101888.94;5076896;28;45708;-73
2022/07/11 10:41:50;;;;;;;;;0.00;0.00;;;;;48.56;12.38;101896.63;5076274;28;45446;-74
2022/07/11 10:44:16;;;;;;;;;0.00;0.00;;;;;48.34;12.84;101889.47;5073281;27;45451;-74
2022/07/11 10:46:41;;;;;;;;;0.00;0.00;;;;;48.03;13.04;101896.47;5064592;28;45562;-73
2022/07/11 10:49:14;;;;;;;;;0.00;0.00;;;;;47.50;13.47;101900.66;5072137;28;46280;-74
2022/07/11 10:51:42;;;;;;;;;0.00;0.00;;;;;46.89;13.88;101893.13;5072247;28;45588;-73
2022/07/11 10:54:42;;;;;;;;;0.00;0.00;;;;;46.47;13.90;101890.59;5076480;27;45446;-74
2022/07/11 10:57:26;;;;;;;;;0.00;0.00;;;;;46.14;14.38;101878.69;5069214;27;45508;-73
2022/07/11 11:00:02;;;;;;;;;0.00;0.00;;;;;45.75;14.67;101889.53;5076316;28;46084;-74
2022/07/11 11:02:29;;;;;;;;;0.00;0.00;;;;;45.27;14.65;101883.97;5076354;27;45438;-76
2022/07/11 11:05:00;;;;;;;;;0.67;0.00;;;;;44.60;14.95;101877.81;5076540;28;45513;-73
2022/07/11 11:07:46;;;;;;;;;0.00;0.00;;;;;43.62;15.83;101849.78;5076603;27;45548;-76
2022/07/11 11:10:17;;;;;;;;;0.00;0.00;;;;;43.20;16.49;101869.94;5058873;28;47119;-76
2022/07/11 11:13:05;;;;;;;;;0.00;0.00;;;;;42.49;16.84;101870.47;5063721;27;45531;-73
2022/07/11 11:15:44;;;;;;;;;0.00;0.00;;;;;41.92;17.17;101859.28;5076517;28;45504;-73
2022/07/11 11:18:24;;;;;;;;;0.00;0.00;;;;;41.38;17.44;101865.16;5076507;28;45571;-73
2022/07/11 11:21:02;;;;;;;;;4.33;4.33;;;;;40.75;17.93;101863.09;5082522;27;45859;-73
2022/07/11 11:23:59;;;;;;;;;0.00;0.00;;;;;40.35;18.43;101858.13;5070016;28;45419;-74
2022/07/11 11:26:45;;;;;;;;;0.00;0.00;;;;;39.59;18.80;101835.28;5054643;28;45367;-74
2022/07/11 11:29:11;;;;;;;;;0.00;0.00;;;;;39.53;19.44;101859.41;5076569;28;45758;-74
2022/07/11 11:31:37;;;;;;;;;1.00;1.00;;;;;39.30;19.14;101859.22;5075993;27;47333;-75
2022/07/11 11:34:03;;;;;;;;;1.00;1.00;;;;;39.17;19.65;101849.94;5076009;27;45506;-75